sensor_id;sensor_type;location;lat;lon;timestamp;pressure;altitude;pressure_sealevel;temperature;humidity
12799;BME280;19250;42.646;26.980;2022-08-24T00:02:02;98533.97;;;25.08;100.00
12799;BME280;19250;42.646;26.980;2022-08-24T00:04:29;98491.25;;;24.81;100.00
12799;BME280;19250;42.646;26.980;2022-08-24T00:06:57;98513.78;;;25.04;100.00
12799;BME280;19250;42.646;26.980;2022-08-24T00:09:24;98524.53;;;24.83;100.00
12799;BME280;19250;42.646;26.980;2022-08-24T00:11:51;98523.25;;;24.91;100.00
12799;BME280;19250;42.646;26.980;2022-08-24T00:14:19;98525.53;;;24.72;100.00
12799;BME280;19250;42.646;26.980;2022-08-24T00:16:48;98530.22;;;24.45;100.00
12799;BME280;19250;42.646;26.980;2022-08-24T00:19:15;98529.78;;;24.58;100.00
12799;BME280;19250;42.646;26.980;2022-08-24T00:21:43;98530.25;;;24.50;100.00
12799;BME280;19250;42.646;26.980;2022-08-24T00:24:10;98533.13;;;24.33;100.00
12799;BME280;19250;42.646;26.980;2022-08-24T00:26:39;98546.25;;;24.42;100.00
12799;BME280;19250;42.646;26.980;2022-08-24T00:29:06;98545.66;;;24.66;100.00
12799;BME280;19250;42.646;26.980;2022-08-24T00:31:34;98552.06;;;24.50;100.00
12799;BME280;19250;42.646;26.980;2022-08-24T00:34:03;98543.97;;;24.60;100.00
12799;BME280;19250;42.646;26.980;2022-08-24T00:36:31;98536.56;;;24.82;100.00
12799;BME280;19250;42.646;26.980;2022-08-24T00:38:59;98536.97;;;24.74;100.00
12799;BME280;19250;42.646;26.980;2022-08-24T00:41:27;98534.06;;;24.49;100.00
12799;BME280;19250;42.646;26.980;2022-08-24T00:43:56;98551.31;;;24.60;100.00
12799;BME280;19250;42.646;26.980;2022-08-24T00:46:27;98540.34;;;24.81;100.00
12799;BME280;19250;42.646;26.980;2022-08-24T00:49:00;98527.72;;;24.75;100.00
12799;BME280;19250;42.646;26.980;2022-08-24T00:51:36;98531.44;;;24.96;100.00
12799;BME280;19250;42.646;26.980;2022-08-24T00:54:09;98533.66;;;24.99;100.00
12799;BME280;19250;42.646;26.980;2022-08-24T00:56:42;98537.19;;;25.00;100.00
12799;BME280;19250;42.646;26.980;2022-08-24T00:59:16;98534.41;;;24.89;100.00
12799;BME280;19250;42.646;26.980;2022-08-24T01:01:44;98540.56;;;24.80;100.00
12799;BME280;19250;42.646;26.980;2022-08-24T01:04:17;98483.13;;;24.55;100.00
12799;BME280;19250;42.646;26.980;2022-08-24T01:06:47;98531.66;;;24.84;100.00
12799;BME280;19250;42.646;26.980;2022-08-24T01:09:15;98540.75;;;25.00;100.00
12799;BME280;19250;42.646;26.980;2022-08-24T01:11:44;98532.59;;;25.05;100.00
12799;BME280;19250;42.646;26.980;2022-08-24T01:14:11;98535.00;;;24.97;100.00
12799;BME280;19250;42.646;26.980;2022-08-24T01:16:39;98534.16;;;24.91;100.00
12799;BME280;19250;42.646;26.980;2022-08-24T01:19:30;98525.44;;;24.94;100.00
12799;BME280;19250;42.646;26.980;2022-08-24T01:22:11;98461.53;;;24.48;100.00
12799;BME280;19250;42.646;26.980;2022-08-24T01:24:43;98523.94;;;24.76;100.00
12799;BME280;19250;42.646;26.980;2022-08-24T01:27:11;98526.19;;;24.84;100.00
12799;BME280;19250;42.646;26.980;2022-08-24T01:29:41;98525.75;;;24.98;100.00
12799;BME280;19250;42.646;26.980;2022-08-24T01:32:10;98468.91;;;24.53;100.00
12799;BME280;19250;42.646;26.980;2022-08-24T01:34:38;98522.97;;;24.92;100.00
12799;BME280;19250;42.646;26.980;2022-08-24T01:37:07;98519.75;;;24.69;100.00
12799;BME280;19250;42.646;26.980;2022-08-24T01:39:38;98514.25;;;24.96;100.00
12799;BME280;19250;42.646;26.980;2022-08-24T01:42:08;98513.09;;;24.86;100.00
12799;BME280;19250;42.646;26.980;2022-08-24T01:44:37;98514.34;;;24.74;100.00
12799;BME280;19250;42.646;26.980;2022-08-24T01:47:07;98510.34;;;24.18;100.00
12799;BME280;19250;42.646;26.980;2022-08-24T01:49:37;98510.72;;;24.31;100.00
12799;BME280;19250;42.646;26.980;2022-08-24T01:52:07;98515.38;;;24.31;100.00
12799;BME280;19250;42.646;26.980;2022-08-24T01:54:35;98501.72;;;24.04;100.00
12799;BME280;19250;42.646;26.980;2022-08-24T01:57:02;98514.34;;;24.37;100.00
12799;BME280;19250;42.646;26.980;2022-08-24T01:59:32;98504.97;;;24.28;100.00
12799;BME280;19250;42.646;26.980;2022-08-24T02:02:02;98503.50;;;24.15;100.00
12799;BME280;19250;42.646;26.980;2022-08-24T02:04:32;98496.41;;;24.14;100.00
12799;BME280;19250;42.646;26.980;2022-08-24T02:07:00;98462.88;;;24.14;100.00
12799;BME280;19250;42.646;26.980;2022-08-24T02:09:27;98475.59;;;24.35;100.00
12799;BME280;19250;42.646;26.980;2022-08-24T02:11:55;98482.84;;;23.98;100.00
12799;BME280;19250;42.646;26.980;2022-08-24T02:14:22;98435.69;;;23.65;100.00
12799;BME280;19250;42.646;26.980;2022-08-24T02:16:51;98484.00;;;24.02;100.00
12799;BME280;19250;42.646;26.980;2022-08-24T02:19:18;98478.03;;;24.05;100.00
12799;BME280;19250;42.646;26.980;2022-08-24T02:21:46;98464.09;;;24.01;100.00
12799;BME280;19250;42.646;26.980;2022-08-24T02:24:13;98469.00;;;24.26;100.00
12799;BME280;19250;42.646;26.980;2022-08-24T02:26:41;98467.50;;;24.45;100.00
12799;BME280;19250;42.646;26.980;2022-08-24T02:29:08;98475.16;;;24.43;100.00
12799;BME280;19250;42.646;26.980;2022-08-24T02:31:36;98467.81;;;24.49;100.00
12799;BME280;19250;42.646;26.980;2022-08-24T02:34:04;98463.72;;;24.46;100.00
12799;BME280;19250;42.646;26.980;2022-08-24T02:36:32;98461.50;;;24.43;100.00
12799;BME280;19250;42.646;26.980;2022-08-24T02:38:59;98453.88;;;24.45;100.00
12799;BME280;19250;42.646;26.980;2022-08-24T02:41:27;98458.91;;;24.26;100.00
12799;BME280;19250;42.646;26.980;2022-08-24T02:43:55;98453.28;;;24.38;100.00
12799;BME280;19250;42.646;26.980;2022-08-24T02:46:26;98452.22;;;24.39;100.00
12799;BME280;19250;42.646;26.980;2022-08-24T02:48:53;98450.41;;;24.55;100.00
12799;BME280;19250;42.646;26.980;2022-08-24T02:51:24;98436.81;;;24.60;100.00
12799;BME280;19250;42.646;26.980;2022-08-24T02:53:52;98433.25;;;24.59;100.00
12799;BME280;19250;42.646;26.980;2022-08-24T02:56:19;98443.31;;;24.54;100.00
12799;BME280;19250;42.646;26.980;2022-08-24T02:58:47;98411.41;;;24.49;100.00
12799;BME280;19250;42.646;26.980;2022-08-24T03:01:14;98448.88;;;24.74;100.00
12799;BME280;19250;42.646;26.980;2022-08-24T03:03:43;98446.94;;;24.64;100.00
12799;BME280;19250;42.646;26.980;2022-08-24T03:06:11;98461.44;;;24.70;100.00
12799;BME280;19250;42.646;26.980;2022-08-24T03:08:40;98473.09;;;24.65;100.00
12799;BME280;19250;42.646;26.980;2022-08-24T03:11:08;98481.56;;;24.64;100.00
12799;BME280;19250;42.646;26.980;2022-08-24T03:13:35;98421.06;;;24.30;100.00
12799;BME280;19250;42.646;26.980;2022-08-24T03:16:04;98490.00;;;24.62;100.00
12799;BME280;19250;42.646;26.980;2022-08-24T03:18:32;98504.75;;;24.66;100.00
12799;BME280;19250;42.646;26.980;2022-08-24T03:21:00;98504.16;;;24.91;100.00
12799;BME280;19250;42.646;26.980;2022-08-24T03:23:28;98506.03;;;24.85;100.00
12799;BME280;19250;42.646;26.980;2022-08-24T03:25:57;98510.97;;;24.94;100.00
12799;BME280;19250;42.646;26.980;2022-08-24T03:28:27;98509.66;;;25.01;100.00
12799;BME280;19250;42.646;26.980;2022-08-24T03:30:54;98507.41;;;24.93;100.00
12799;BME280;19250;42.646;26.980;2022-08-24T03:33:22;98512.06;;;24.92;100.00
12799;BME280;19250;42.646;26.980;2022-08-24T03:35:49;98501.66;;;24.89;100.00
12799;BME280;19250;42.646;26.980;2022-08-24T03:38:18;98512.84;;;24.88;100.00
12799;BME280;19250;42.646;26.980;2022-08-24T03:40:45;98517.47;;;24.82;100.00
12799;BME280;19250;42.646;26.980;2022-08-24T03:43:15;98515.69;;;24.71;100.00
12799;BME280;19250;42.646;26.980;2022-08-24T03:45:56;98523.47;;;24.84;100.00
12799;BME280;19250;42.646;26.980;2022-08-24T03:48:25;98533.41;;;25.01;100.00
12799;BME280;19250;42.646;26.980;2022-08-24T03:50:53;98533.94;;;25.03;100.00
12799;BME280;19250;42.646;26.980;2022-08-24T03:53:21;98531.09;;;25.24;100.00
12799;BME280;19250;42.646;26.980;2022-08-24T03:55:48;98536.78;;;25.18;100.00
12799;BME280;19250;42.646;26.980;2022-08-24T03:58:17;98527.53;;;25.29;100.00
12799;BME280;19250;42.646;26.980;2022-08-24T04:00:44;98537.16;;;25.41;100.00
12799;BME280;19250;42.646;26.980;2022-08-24T04:03:12;98506.81;;;25.33;100.00
12799;BME280;19250;42.646;26.980;2022-08-24T04:05:40;98534.00;;;25.60;100.00
12799;BME280;19250;42.646;26.980;2022-08-24T04:08:09;98539.97;;;25.52;100.00
12799;BME280;19250;42.646;26.980;2022-08-24T04:10:37;98510.16;;;25.45;100.00
12799;BME280;19250;42.646;26.980;2022-08-24T04:13:09;98529.38;;;25.60;100.00
12799;BME280;19250;42.646;26.980;2022-08-24T04:15:40;98526.09;;;25.53;100.00
12799;BME280;19250;42.646;26.980;2022-08-24T04:18:08;98532.91;;;25.56;100.00
12799;BME280;19250;42.646;26.980;2022-08-24T04:20:39;98538.91;;;25.58;100.00
12799;BME280;19250;42.646;26.980;2022-08-24T04:23:08;98530.53;;;25.74;100.00
12799;BME280;19250;42.646;26.980;2022-08-24T04:25:40;98536.03;;;25.89;100.00
12799;BME280;19250;42.646;26.980;2022-08-24T04:28:09;98506.16;;;25.63;100.00
12799;BME280;19250;42.646;26.980;2022-08-24T04:30:40;98543.66;;;25.87;100.00
12799;BME280;19250;42.646;26.980;2022-08-24T04:33:08;98542.91;;;26.07;100.00
12799;BME280;19250;42.646;26.980;2022-08-24T04:35:37;98548.97;;;26.14;100.00
12799;BME280;19250;42.646;26.980;2022-08-24T04:38:05;98541.84;;;26.13;100.00
12799;BME280;19250;42.646;26.980;2022-08-24T04:40:33;98542.97;;;26.22;100.00
12799;BME280;19250;42.646;26.980;2022-08-24T04:43:00;98539.41;;;26.27;100.00
12799;BME280;19250;42.646;26.980;2022-08-24T04:45:28;98508.25;;;26.23;100.00
12799;BME280;19250;42.646;26.980;2022-08-24T04:47:56;98544.38;;;26.45;100.00
12799;BME280;19250;42.646;26.980;2022-08-24T04:50:24;98546.84;;;26.67;100.00
12799;BME280;19250;42.646;26.980;2022-08-24T04:52:51;98558.34;;;26.69;100.00
12799;BME280;19250;42.646;26.980;2022-08-24T04:55:19;98538.91;;;26.70;100.00
12799;BME280;19250;42.646;26.980;2022-08-24T04:57:46;98554.22;;;26.76;100.00
12799;BME280;19250;42.646;26.980;2022-08-24T05:00:14;98560.53;;;26.92;100.00
12799;BME280;19250;42.646;26.980;2022-08-24T05:02:41;98561.91;;;26.94;100.00
12799;BME280;19250;42.646;26.980;2022-08-24T05:05:11;98556.97;;;26.91;100.00
12799;BME280;19250;42.646;26.980;2022-08-24T05:07:39;98549.84;;;27.21;100.00
12799;BME280;19250;42.646;26.980;2022-08-24T05:10:07;98501.44;;;26.61;100.00
12799;BME280;19250;42.646;26.980;2022-08-24T05:12:35;98549.88;;;26.95;100.00
12799;BME280;19250;42.646;26.980;2022-08-24T05:15:04;98556.97;;;27.07;100.00
12799;BME280;19250;42.646;26.980;2022-08-24T05:17:31;98562.72;;;27.05;100.00
12799;BME280;19250;42.646;26.980;2022-08-24T05:19:59;98552.06;;;26.98;100.00
12799;BME280;19250;42.646;26.980;2022-08-24T05:22:27;98551.25;;;27.03;100.00
12799;BME280;19250;42.646;26.980;2022-08-24T05:24:55;98554.78;;;27.03;100.00
12799;BME280;19250;42.646;26.980;2022-08-24T05:27:22;98560.53;;;27.12;100.00
12799;BME280;19250;42.646;26.980;2022-08-24T05:29:51;98565.72;;;27.14;100.00
12799;BME280;19250;42.646;26.980;2022-08-24T05:32:20;98573.63;;;27.35;100.00
12799;BME280;19250;42.646;26.980;2022-08-24T05:34:47;98572.84;;;27.15;100.00
12799;BME280;19250;42.646;26.980;2022-08-24T05:37:14;98577.41;;;27.60;100.00
12799;BME280;19250;42.646;26.980;2022-08-24T05:39:43;98577.59;;;27.88;100.00
12799;BME280;19250;42.646;26.980;2022-08-24T05:42:10;98577.78;;;28.12;100.00
12799;BME280;19250;42.646;26.980;2022-08-24T05:44:38;98583.84;;;28.48;100.00
12799;BME280;19250;42.646;26.980;2022-08-24T05:47:05;98593.78;;;28.44;100.00
12799;BME280;19250;42.646;26.980;2022-08-24T05:49:32;98601.84;;;28.64;100.00
12799;BME280;19250;42.646;26.980;2022-08-24T05:52:00;98606.81;;;28.67;100.00
12799;BME280;19250;42.646;26.980;2022-08-24T05:54:27;98607.72;;;28.47;100.00
12799;BME280;19250;42.646;26.980;2022-08-24T05:56:56;98587.63;;;28.57;100.00
12799;BME280;19250;42.646;26.980;2022-08-24T05:59:29;98607.34;;;28.64;100.00
12799;BME280;19250;42.646;26.980;2022-08-24T06:01:56;98602.22;;;28.52;100.00
12799;BME280;19250;42.646;26.980;2022-08-24T06:04:23;98620.22;;;28.25;100.00
12799;BME280;19250;42.646;26.980;2022-08-24T06:06:51;98559.09;;;27.40;100.00
12799;BME280;19250;42.646;26.980;2022-08-24T06:09:22;98620.63;;;27.83;100.00
12799;BME280;19250;42.646;26.980;2022-08-24T06:11:49;98483.09;;;26.91;100.00
12799;BME280;19250;42.646;26.980;2022-08-24T06:14:18;98603.75;;;28.25;100.00
12799;BME280;19250;42.646;26.980;2022-08-24T06:16:46;98547.25;;;27.65;100.00
12799;BME280;19250;42.646;26.980;2022-08-24T06:19:17;98597.06;;;27.77;100.00
12799;BME280;19250;42.646;26.980;2022-08-24T06:21:45;98600.66;;;27.72;100.00
12799;BME280;19250;42.646;26.980;2022-08-24T06:24:13;98612.03;;;28.15;100.00
12799;BME280;19250;42.646;26.980;2022-08-24T06:26:42;98614.50;;;28.11;100.00
12799;BME280;19250;42.646;26.980;2022-08-24T06:29:29;98626.19;;;28.32;100.00
12799;BME280;19250;42.646;26.980;2022-08-24T06:31:56;98616.00;;;28.42;100.00
12799;BME280;19250;42.646;26.980;2022-08-24T06:34:24;98637.44;;;28.79;98.32
12799;BME280;19250;42.646;26.980;2022-08-24T06:36:51;98638.44;;;28.93;97.91
12799;BME280;19250;42.646;26.980;2022-08-24T06:39:18;98635.16;;;28.91;96.38
12799;BME280;19250;42.646;26.980;2022-08-24T06:41:45;98637.13;;;28.86;96.23
12799;BME280;19250;42.646;26.980;2022-08-24T06:44:13;98647.94;;;29.06;94.49
12799;BME280;19250;42.646;26.980;2022-08-24T06:46:41;98655.50;;;29.24;92.91
12799;BME280;19250;42.646;26.980;2022-08-24T06:49:09;98657.22;;;29.15;93.68
12799;BME280;19250;42.646;26.980;2022-08-24T06:51:36;98653.50;;;29.01;92.87
12799;BME280;19250;42.646;26.980;2022-08-24T06:54:04;98651.38;;;29.22;91.50
12799;BME280;19250;42.646;26.980;2022-08-24T06:56:31;98656.00;;;29.31;90.24
12799;BME280;19250;42.646;26.980;2022-08-24T06:59:00;98664.94;;;29.47;89.83
12799;BME280;19250;42.646;26.980;2022-08-24T07:01:28;98654.28;;;29.40;90.20
12799;BME280;19250;42.646;26.980;2022-08-24T07:03:57;98649.00;;;28.76;94.44
12799;BME280;19250;42.646;26.980;2022-08-24T07:06:25;98632.59;;;28.66;95.00
12799;BME280;19250;42.646;26.980;2022-08-24T07:08:53;98650.34;;;28.30;97.76
12799;BME280;19250;42.646;26.980;2022-08-24T07:11:21;98648.66;;;28.39;97.14
12799;BME280;19250;42.646;26.980;2022-08-24T07:13:50;98645.38;;;28.32;97.33
12799;BME280;19250;42.646;26.980;2022-08-24T07:16:18;98634.66;;;28.35;97.21
12799;BME280;19250;42.646;26.980;2022-08-24T07:18:46;98659.69;;;28.24;99.76
12799;BME280;19250;42.646;26.980;2022-08-24T07:21:16;98665.81;;;27.95;100.00
12799;BME280;19250;42.646;26.980;2022-08-24T07:23:44;98652.63;;;28.07;100.00
12799;BME280;19250;42.646;26.980;2022-08-24T07:26:13;98652.69;;;27.87;100.00
12799;BME280;19250;42.646;26.980;2022-08-24T07:28:41;98645.59;;;27.76;100.00
12799;BME280;19250;42.646;26.980;2022-08-24T07:31:08;98626.47;;;27.51;100.00
12799;BME280;19250;42.646;26.980;2022-08-24T07:33:36;98606.22;;;27.47;100.00
12799;BME280;19250;42.646;26.980;2022-08-24T07:36:04;98606.19;;;27.37;100.00
12799;BME280;19250;42.646;26.980;2022-08-24T07:38:33;98631.69;;;27.22;100.00
12799;BME280;19250;42.646;26.980;2022-08-24T07:41:03;98547.09;;;26.70;100.00
12799;BME280;19250;42.646;26.980;2022-08-24T07:43:30;98637.44;;;27.51;100.00
12799;BME280;19250;42.646;26.980;2022-08-24T07:45:58;98646.19;;;27.38;100.00
12799;BME280;19250;42.646;26.980;2022-08-24T07:48:25;98632.53;;;27.08;100.00
12799;BME280;19250;42.646;26.980;2022-08-24T07:50:53;98636.88;;;27.39;100.00
12799;BME280;19250;42.646;26.980;2022-08-24T07:53:20;98669.47;;;27.40;100.00
12799;BME280;19250;42.646;26.980;2022-08-24T07:55:54;98690.56;;;27.20;100.00
12799;BME280;19250;42.646;26.980;2022-08-24T07:58:22;98687.31;;;27.43;100.00
12799;BME280;19250;42.646;26.980;2022-08-24T08:00:50;98705.91;;;27.76;100.00
12799;BME280;19250;42.646;26.980;2022-08-24T08:03:17;98697.88;;;28.00;100.00
12799;BME280;19250;42.646;26.980;2022-08-24T08:05:46;98634.44;;;27.42;100.00
12799;BME280;19250;42.646;26.980;2022-08-24T08:08:14;98685.31;;;27.79;100.00
12799;BME280;19250;42.646;26.980;2022-08-24T08:10:41;98683.09;;;28.01;100.00
12799;BME280;19250;42.646;26.980;2022-08-24T08:13:10;98673.22;;;28.00;100.00
12799;BME280;19250;42.646;26.980;2022-08-24T08:15:37;98670.72;;;28.08;100.00
12799;BME280;19250;42.646;26.980;2022-08-24T08:18:05;98681.41;;;28.15;100.00
12799;BME280;19250;42.646;26.980;2022-08-24T08:20:33;98661.72;;;27.83;100.00
12799;BME280;19250;42.646;26.980;2022-08-24T08:23:00;98664.69;;;28.01;100.00
12799;BME280;19250;42.646;26.980;2022-08-24T08:25:47;98658.22;;;27.67;100.00
12799;BME280;19250;42.646;26.980;2022-08-24T08:28:16;98660.13;;;27.72;100.00
12799;BME280;19250;42.646;26.980;2022-08-24T08:30:44;98668.56;;;27.90;100.00
12799;BME280;19250;42.646;26.980;2022-08-24T08:33:12;98647.78;;;27.74;100.00
12799;BME280;19250;42.646;26.980;2022-08-24T08:35:40;98621.16;;;27.90;100.00
12799;BME280;19250;42.646;26.980;2022-08-24T08:38:09;98614.22;;;28.18;100.00
12799;BME280;19250;42.646;26.980;2022-08-24T08:40:47;98477.03;;;27.04;100.00
12799;BME280;19250;42.646;26.980;2022-08-24T08:43:37;98580.41;;;27.68;100.00
12799;BME280;19250;42.646;26.980;2022-08-24T08:46:21;98571.88;;;27.75;100.00
12799;BME280;19250;42.646;26.980;2022-08-24T08:49:07;98555.94;;;27.87;100.00
12799;BME280;19250;42.646;26.980;2022-08-24T08:52:02;98530.03;;;27.54;100.00
12799;BME280;19250;42.646;26.980;2022-08-24T08:54:43;98567.41;;;27.89;100.00
12799;BME280;19250;42.646;26.980;2022-08-24T08:57:30;98601.63;;;28.12;100.00
12799;BME280;19250;42.646;26.980;2022-08-24T09:00:12;98644.41;;;28.07;100.00
12799;BME280;19250;42.646;26.980;2022-08-24T09:03:14;98645.94;;;28.29;100.00
12799;BME280;19250;42.646;26.980;2022-08-24T09:05:57;98665.47;;;28.76;98.70
12799;BME280;19250;42.646;26.980;2022-08-24T09:08:43;98693.13;;;28.31;100.00
12799;BME280;19250;42.646;26.980;2022-08-24T09:11:22;98705.25;;;28.79;99.50
12799;BME280;19250;42.646;26.980;2022-08-24T09:14:16;98695.59;;;28.37;97.72
12799;BME280;19250;42.646;26.980;2022-08-24T09:17:03;98731.06;;;27.08;100.00
12799;BME280;19250;42.646;26.980;2022-08-24T09:19:49;98732.19;;;27.42;100.00
12799;BME280;19250;42.646;26.980;2022-08-24T09:22:21;98743.66;;;28.04;100.00
12799;BME280;19250;42.646;26.980;2022-08-24T09:25:14;98741.47;;;28.81;100.00
12799;BME280;19250;42.646;26.980;2022-08-24T09:28:02;98713.44;;;28.30;100.00
12799;BME280;19250;42.646;26.980;2022-08-24T09:30:55;98729.50;;;29.05;96.32
12799;BME280;19250;42.646;26.980;2022-08-24T09:33:30;98735.84;;;28.52;98.20
12799;BME280;19250;42.646;26.980;2022-08-24T09:36:10;98723.66;;;27.94;100.00
12799;BME280;19250;42.646;26.980;2022-08-24T09:39:04;98699.13;;;28.38;100.00
12799;BME280;19250;42.646;26.980;2022-08-24T09:48:02;98656.38;;;29.20;94.00
12799;BME280;19250;42.646;26.980;2022-08-24T09:56:56;98563.69;;;28.62;96.03
12799;BME280;19250;42.646;26.980;2022-08-24T09:59:42;98558.34;;;28.86;95.45
12799;BME280;19250;42.646;26.980;2022-08-24T10:02:32;98577.19;;;29.27;93.24
12799;BME280;19250;42.646;26.980;2022-08-24T10:05:11;98588.44;;;28.96;93.49
12799;BME280;19250;42.646;26.980;2022-08-24T10:07:47;98595.00;;;29.00;94.40
12799;BME280;19250;42.646;26.980;2022-08-24T10:10:26;98589.13;;;28.83;94.41
12799;BME280;19250;42.646;26.980;2022-08-24T10:13:08;98583.97;;;29.05;90.00
12799;BME280;19250;42.646;26.980;2022-08-24T10:15:46;98565.41;;;28.58;92.20
12799;BME280;19250;42.646;26.980;2022-08-24T10:18:31;98555.69;;;28.76;91.72
12799;BME280;19250;42.646;26.980;2022-08-24T10:21:13;98548.75;;;28.45;92.41
12799;BME280;19250;42.646;26.980;2022-08-24T10:23:56;98547.94;;;28.44;92.71
12799;BME280;19250;42.646;26.980;2022-08-24T10:26:35;98553.16;;;28.41;91.53
12799;BME280;19250;42.646;26.980;2022-08-24T10:29:20;98551.94;;;28.62;90.13
12799;BME280;19250;42.646;26.980;2022-08-24T10:32:07;98564.91;;;28.51;91.60
12799;BME280;19250;42.646;26.980;2022-08-24T10:34:48;98563.50;;;28.54;90.02
12799;BME280;19250;42.646;26.980;2022-08-24T10:37:40;98553.56;;;28.63;89.76
12799;BME280;19250;42.646;26.980;2022-08-24T10:40:30;98565.16;;;28.55;90.30
12799;BME280;19250;42.646;26.980;2022-08-24T10:46:38;98556.91;;;29.23;86.37
12799;BME280;19250;42.646;26.980;2022-08-24T10:52:47;98583.84;;;29.49;83.30
12799;BME280;19250;42.646;26.980;2022-08-24T10:55:21;98606.56;;;29.84;80.40
12799;BME280;19250;42.646;26.980;2022-08-24T10:58:04;98603.69;;;30.36;76.35
12799;BME280;19250;42.646;26.980;2022-08-24T11:00:34;98592.63;;;31.84;67.12
12799;BME280;19250;42.646;26.980;2022-08-24T11:03:10;98596.78;;;32.50;61.69
12799;BME280;19250;42.646;26.980;2022-08-24T11:05:46;98615.47;;;32.53;61.34
12799;BME280;19250;42.646;26.980;2022-08-24T11:08:20;98625.78;;;34.76;49.47
12799;BME280;19250;42.646;26.980;2022-08-24T11:11:05;98595.53;;;35.43;43.18
12799;BME280;19250;42.646;26.980;2022-08-24T11:13:34;98629.22;;;35.80;42.76
12799;BME280;19250;42.646;26.980;2022-08-24T11:16:04;98622.31;;;35.05;44.25
12799;BME280;19250;42.646;26.980;2022-08-24T11:18:50;98597.88;;;35.16;44.54
12799;BME280;19250;42.646;26.980;2022-08-24T11:24:26;98609.28;;;36.16;41.61
12799;BME280;19250;42.646;26.980;2022-08-24T11:26:57;98598.94;;;37.40;36.96
12799;BME280;19250;42.646;26.980;2022-08-24T11:29:29;98547.22;;;37.96;35.75
12799;BME280;19250;42.646;26.980;2022-08-24T11:32:29;98590.03;;;38.80;34.07
12799;BME280;19250;42.646;26.980;2022-08-24T11:35:04;98563.19;;;38.36;33.93
12799;BME280;19250;42.646;26.980;2022-08-24T11:37:37;98571.88;;;37.61;34.44
12799;BME280;19250;42.646;26.980;2022-08-24T11:40:06;98593.50;;;38.37;34.99
12799;BME280;19250;42.646;26.980;2022-08-24T11:42:47;98592.56;;;38.09;33.35
12799;BME280;19250;42.646;26.980;2022-08-24T11:45:24;98621.06;;;37.25;35.36
12799;BME280;19250;42.646;26.980;2022-08-24T11:48:06;98609.00;;;36.00;38.26
12799;BME280;19250;42.646;26.980;2022-08-24T11:50:47;98621.31;;;35.35;39.81
12799;BME280;19250;42.646;26.980;2022-08-24T11:53:23;98628.88;;;34.92;42.05
12799;BME280;19250;42.646;26.980;2022-08-24T11:56:03;98632.94;;;34.60;42.57
12799;BME280;19250;42.646;26.980;2022-08-24T11:58:39;98626.81;;;34.15;43.61
12799;BME280;19250;42.646;26.980;2022-08-24T12:01:16;98637.91;;;34.24;44.84
12799;BME280;19250;42.646;26.980;2022-08-24T12:03:56;98615.28;;;34.39;44.41
12799;BME280;19250;42.646;26.980;2022-08-24T12:06:38;98626.91;;;34.84;42.09
12799;BME280;19250;42.646;26.980;2022-08-24T12:09:20;98594.41;;;33.76;45.30
12799;BME280;19250;42.646;26.980;2022-08-24T12:11:59;98592.06;;;33.61;46.47
12799;BME280;19250;42.646;26.980;2022-08-24T12:14:34;98597.94;;;33.60;47.21
12799;BME280;19250;42.646;26.980;2022-08-24T12:17:07;98594.56;;;33.18;48.55
12799;BME280;19250;42.646;26.980;2022-08-24T12:19:44;98596.03;;;33.16;49.56
12799;BME280;19250;42.646;26.980;2022-08-24T12:22:15;98583.38;;;33.01;49.82
12799;BME280;19250;42.646;26.980;2022-08-24T12:24:48;98592.16;;;33.03;51.48
12799;BME280;19250;42.646;26.980;2022-08-24T12:27:19;98594.22;;;33.11;50.91
12799;BME280;19250;42.646;26.980;2022-08-24T12:29:51;98603.03;;;33.44;48.88
12799;BME280;19250;42.646;26.980;2022-08-24T12:32:25;98591.66;;;32.79;51.33
12799;BME280;19250;42.646;26.980;2022-08-24T12:34:56;98591.03;;;32.82;52.05
12799;BME280;19250;42.646;26.980;2022-08-24T12:37:31;98600.53;;;32.54;52.17
12799;BME280;19250;42.646;26.980;2022-08-24T12:40:06;98590.50;;;32.08;55.17
12799;BME280;19250;42.646;26.980;2022-08-24T12:42:39;98564.69;;;31.77;55.75
12799;BME280;19250;42.646;26.980;2022-08-24T12:45:12;98600.59;;;31.72;58.41
12799;BME280;19250;42.646;26.980;2022-08-24T12:47:44;98610.94;;;32.21;56.46
12799;BME280;19250;42.646;26.980;2022-08-24T12:50:21;98605.41;;;32.34;54.68
12799;BME280;19250;42.646;26.980;2022-08-24T12:53:19;98601.34;;;31.64;58.40
12799;BME280;19250;42.646;26.980;2022-08-24T12:56:06;98595.31;;;31.62;60.06
12799;BME280;19250;42.646;26.980;2022-08-24T12:58:59;98595.94;;;31.26;61.78
12799;BME280;19250;42.646;26.980;2022-08-24T13:01:31;98588.22;;;30.96;63.64
12799;BME280;19250;42.646;26.980;2022-08-24T13:04:10;98578.88;;;30.92;63.44
12799;BME280;19250;42.646;26.980;2022-08-24T13:06:42;98570.84;;;30.77;63.16
12799;BME280;19250;42.646;26.980;2022-08-24T13:09:16;98555.75;;;30.74;63.31
12799;BME280;19250;42.646;26.980;2022-08-24T13:11:52;98537.78;;;30.26;67.09
12799;BME280;19250;42.646;26.980;2022-08-24T13:14:21;98508.19;;;30.18;67.35
12799;BME280;19250;42.646;26.980;2022-08-24T13:17:11;98500.47;;;30.39;65.94
12799;BME280;19250;42.646;26.980;2022-08-24T13:19:41;98505.50;;;30.32;68.19
12799;BME280;19250;42.646;26.980;2022-08-24T13:22:47;98488.63;;;30.19;67.91
12799;BME280;19250;42.646;26.980;2022-08-24T13:28:07;98452.41;;;30.12;66.70
12799;BME280;19250;42.646;26.980;2022-08-24T13:30:54;98478.59;;;30.29;65.97
12799;BME280;19250;42.646;26.980;2022-08-24T13:33:30;98479.25;;;30.58;65.35
12799;BME280;19250;42.646;26.980;2022-08-24T13:36:06;98469.78;;;30.64;63.62